Time;durP1;ratioP1;P1;durP2;ratioP2;P2;SDS_P1;SDS_P2;PMS_P1;PMS_P2;Temp;Humidity;BMP_temperature;BMP_pressure;BME280_temperature;BME280_humidity;BME280_pressure;Samples;Min_cycle;Max_cycle;Signal;HPM_P1;HPM_P2
2024/01/19 00:00:46;;;;;;;10.00;5.10;;;-1.40;99.90;;;;;;5006654;28;20052;-64
2024/01/19 00:03:12;;;;;;;12.02;5.82;;;-1.40;99.90;;;;;;5008373;28;20038;-64
2024/01/19 00:05:37;;;;;;;11.38;5.65;;;-1.40;99.90;;;;;;5001165;28;21410;-65
2024/01/19 00:08:04;;;;;;;15.30;5.72;;;-1.40;99.90;;;;;;5002905;28;20042;-64
2024/01/19 00:10:33;;;;;;;11.00;5.10;;;-1.40;99.90;;;;;;5004149;28;20040;-64
2024/01/19 00:12:59;;;;;;;14.40;6.25;;;-1.30;99.90;;;;;;5006163;28;20029;-64
2024/01/19 00:15:24;;;;;;;11.85;6.45;;;-1.40;99.90;;;;;;5007044;28;20026;-64
2024/01/19 00:17:50;;;;;;;8.63;5.13;;;-1.30;99.90;;;;;;5007464;28;20701;-64
2024/01/19 00:20:16;;;;;;;13.02;6.35;;;-1.30;99.90;;;;;;5002124;28;20397;-64
2024/01/19 00:22:42;;;;;;;14.00;5.88;;;-1.40;99.90;;;;;;4999649;28;20026;-64
2024/01/19 00:25:08;;;;;;;10.55;6.43;;;-1.50;99.90;;;;;;5006721;28;20893;-64
2024/01/19 00:27:34;;;;;;;13.48;6.50;;;-1.50;99.90;;;;;;5000117;28;20195;-64
2024/01/19 00:29:59;;;;;;;12.73;6.35;;;-1.50;99.90;;;;;;5006032;28;20037;-64
2024/01/19 00:32:25;;;;;;;9.80;5.18;;;-1.50;99.90;;;;;;5006524;28;20030;-64
2024/01/19 00:34:51;;;;;;;10.07;5.30;;;-1.40;99.90;;;;;;5007705;28;20038;-64
2024/01/19 00:37:17;;;;;;;12.68;6.20;;;-1.40;99.90;;;;;;5005990;28;20878;-64
2024/01/19 00:39:42;;;;;;;10.15;4.85;;;-1.40;99.90;;;;;;5007087;28;20505;-64
2024/01/19 00:42:08;;;;;;;13.48;5.32;;;-1.30;99.90;;;;;;5007460;28;20033;-64
2024/01/19 00:44:34;;;;;;;9.65;4.85;;;-1.30;99.90;;;;;;5006539;28;20083;-64
2024/01/19 00:46:59;;;;;;;10.05;4.93;;;-1.30;99.90;;;;;;5003730;28;20041;-64
2024/01/19 00:49:25;;;;;;;8.70;5.03;;;-1.30;99.90;;;;;;5002995;28;20029;-64
2024/01/19 00:51:51;;;;;;;10.90;5.15;;;-1.20;99.90;;;;;;5002501;28;20045;-64
2024/01/19 00:54:17;;;;;;;7.32;4.68;;;-1.20;99.90;;;;;;5004241;28;20049;-64
2024/01/19 00:56:43;;;;;;;16.83;5.13;;;-1.20;99.90;;;;;;5004572;28;20029;-64
2024/01/19 00:59:09;;;;;;;9.55;5.47;;;-1.20;99.90;;;;;;5003486;28;20389;-64
2024/01/19 01:01:34;;;;;;;8.45;4.30;;;-1.10;99.90;;;;;;5005428;28;20030;-64
2024/01/19 01:04:02;;;;;;;9.57;5.43;;;-1.20;99.90;;;;;;5003365;28;20026;-64
2024/01/19 01:06:28;;;;;;;9.73;4.40;;;-1.10;99.90;;;;;;5000569;28;20041;-64
2024/01/19 01:08:54;;;;;;;11.90;5.20;;;-1.10;99.90;;;;;;4998494;28;20052;-64
2024/01/19 01:11:21;;;;;;;11.68;4.97;;;-1.10;99.90;;;;;;4999932;28;20745;-64
2024/01/19 01:13:47;;;;;;;9.23;4.72;;;-1.10;99.90;;;;;;5004840;28;20037;-64
2024/01/19 01:16:13;;;;;;;13.70;4.75;;;-1.20;99.90;;;;;;5000942;28;20064;-64
2024/01/19 01:18:40;;;;;;;9.32;5.15;;;-1.10;99.90;;;;;;5003545;28;20038;-64
2024/01/19 01:21:06;;;;;;;11.35;4.72;;;-1.20;99.90;;;;;;5006199;28;20144;-64
2024/01/19 01:23:32;;;;;;;7.65;4.15;;;-1.20;99.90;;;;;;5004565;28;20036;-64
2024/01/19 01:25:58;;;;;;;11.57;5.10;;;-1.20;99.90;;;;;;5001667;28;20041;-64
2024/01/19 01:28:24;;;;;;;9.38;5.00;;;-1.20;99.90;;;;;;5005928;28;20041;-64
2024/01/19 01:30:49;;;;;;;10.65;5.20;;;-1.20;99.90;;;;;;5003200;28;20030;-64
2024/01/19 01:33:15;;;;;;;11.55;5.28;;;-1.20;99.90;;;;;;5006198;28;20490;-64
2024/01/19 01:35:41;;;;;;;11.15;4.85;;;-1.20;99.90;;;;;;4995614;28;20520;-64
2024/01/19 01:38:07;;;;;;;10.38;4.82;;;-1.30;99.90;;;;;;5002018;28;20034;-63
2024/01/19 01:40:33;;;;;;;7.68;4.05;;;-1.30;99.90;;;;;;4993670;28;20065;-64
2024/01/19 01:43:00;;;;;;;7.32;4.57;;;-1.30;99.90;;;;;;5004302;28;20149;-64
2024/01/19 01:45:27;;;;;;;8.43;4.35;;;-1.30;99.90;;;;;;5002197;28;20033;-64
2024/01/19 01:47:53;;;;;;;10.07;5.07;;;-1.30;99.90;;;;;;4995871;28;20038;-64
2024/01/19 01:50:19;;;;;;;11.30;4.80;;;-1.30;99.90;;;;;;5004368;28;20063;-64
2024/01/19 01:52:46;;;;;;;9.90;4.45;;;-1.30;99.90;;;;;;4990439;28;20708;-64
2024/01/19 01:55:15;;;;;;;9.48;4.60;;;-1.40;99.90;;;;;;4992734;28;20097;-64
2024/01/19 01:57:42;;;;;;;9.98;4.88;;;-1.40;99.90;;;;;;5003704;28;20037;-64
2024/01/19 02:00:10;;;;;;;8.68;4.70;;;-1.40;99.90;;;;;;4996093;28;20485;-64
2024/01/19 02:02:38;;;;;;;8.13;4.18;;;-1.40;99.90;;;;;;4996370;28;20050;-64
2024/01/19 02:05:07;;;;;;;9.40;4.22;;;-1.40;99.90;;;;;;5002876;28;20038;-64
2024/01/19 02:07:33;;;;;;;10.40;4.15;;;-1.40;99.90;;;;;;4999636;28;20026;-64
2024/01/19 02:09:58;;;;;;;10.93;4.40;;;-1.50;99.90;;;;;;5001544;28;20700;-64
2024/01/19 02:12:25;;;;;;;9.10;4.68;;;-1.50;99.90;;;;;;5006155;28;20022;-64
2024/01/19 02:14:51;;;;;;;6.72;3.90;;;-1.40;99.90;;;;;;4994112;28;20038;-64
2024/01/19 02:17:16;;;;;;;7.18;3.50;;;-1.50;99.90;;;;;;4994466;28;20030;-64
2024/01/19 02:19:42;;;;;;;8.75;3.88;;;-1.40;99.90;;;;;;4997942;28;20073;-64
2024/01/19 02:22:08;;;;;;;8.68;4.05;;;-1.40;99.90;;;;;;4997566;28;20026;-64
2024/01/19 02:24:35;;;;;;;7.38;3.75;;;-1.40;99.90;;;;;;4997933;28;20088;-64
2024/01/19 02:27:02;;;;;;;8.00;4.03;;;-1.40;99.90;;;;;;4997850;28;20038;-64
2024/01/19 02:29:28;;;;;;;7.82;3.83;;;-1.40;99.90;;;;;;5003766;28;20042;-64
2024/01/19 02:31:54;;;;;;;6.10;3.42;;;-1.30;99.90;;;;;;4998308;28;20022;-64
2024/01/19 02:34:20;;;;;;;7.30;3.10;;;-1.40;99.90;;;;;;5001925;28;20474;-64
2024/01/19 02:36:46;;;;;;;6.78;3.53;;;-1.30;99.90;;;;;;5000421;28;20038;-64
2024/01/19 02:39:11;;;;;;;4.60;2.90;;;-1.30;99.90;;;;;;4999216;28;20852;-64
2024/01/19 02:41:38;;;;;;;10.65;3.50;;;-1.30;99.90;;;;;;5003927;28;20037;-64
2024/01/19 02:44:03;;;;;;;5.35;3.40;;;-1.30;99.90;;;;;;4991981;28;20387;-64
2024/01/19 02:46:29;;;;;;;9.13;3.28;;;-1.30;99.90;;;;;;5001652;28;20041;-64
2024/01/19 02:48:55;;;;;;;11.07;3.50;;;-1.20;99.90;;;;;;5002837;28;20031;-64
2024/01/19 02:51:21;;;;;;;7.20;3.22;;;-1.20;99.90;;;;;;5000875;28;20042;-64
2024/01/19 02:53:46;;;;;;;8.25;4.22;;;-1.20;99.90;;;;;;5000943;28;20030;-65
2024/01/19 02:56:12;;;;;;;6.80;3.65;;;-1.20;99.90;;;;;;5004712;28;20507;-64
2024/01/19 02:58:38;;;;;;;7.20;3.33;;;-1.20;99.90;;;;;;5005211;28;20411;-64
2024/01/19 03:01:04;;;;;;;7.70;3.42;;;-1.20;99.90;;;;;;4995644;28;20049;-64
2024/01/19 03:03:29;;;;;;;8.80;3.92;;;-1.20;99.90;;;;;;4998877;28;20036;-64
2024/01/19 03:05:55;;;;;;;7.78;3.05;;;-1.20;99.90;;;;;;4997353;28;20044;-64
2024/01/19 03:08:22;;;;;;;5.57;3.47;;;-1.20;99.90;;;;;;5005356;28;20049;-64
2024/01/19 03:10:47;;;;;;;9.40;3.40;;;-1.20;99.90;;;;;;5006036;28;20042;-64
2024/01/19 03:13:13;;;;;;;6.10;3.28;;;-1.20;99.90;;;;;;5000980;28;20042;-65
2024/01/19 03:15:39;;;;;;;8.48;4.00;;;-1.20;99.90;;;;;;5009233;28;20026;-64
2024/01/19 03:18:05;;;;;;;9.20;3.42;;;-1.10;99.90;;;;;;5009110;28;20022;-64
2024/01/19 03:20:30;;;;;;;9.80;3.20;;;-1.10;99.90;;;;;;5005277;28;20733;-64
2024/01/19 03:22:56;;;;;;;8.20;3.88;;;-1.10;99.90;;;;;;5008752;28;20084;-64
2024/01/19 03:25:22;;;;;;;6.10;3.47;;;-1.10;99.90;;;;;;5000972;28;20065;-64
2024/01/19 03:27:47;;;;;;;6.95;3.35;;;-1.10;99.90;;;;;;5007086;28;20064;-64
2024/01/19 03:30:15;;;;;;;13.93;3.67;;;-1.00;99.90;;;;;;5008728;28;20552;-64
2024/01/19 03:32:41;;;;;;;7.88;3.90;;;-1.00;99.90;;;;;;5009024;28;20030;-64
2024/01/19 03:35:07;;;;;;;10.57;3.90;;;-1.00;99.90;;;;;;5002433;28;20626;-64
2024/01/19 03:37:33;;;;;;;8.00;3.33;;;-1.00;99.90;;;;;;5005614;28;20476;-64
2024/01/19 03:39:59;;;;;;;6.78;2.83;;;-1.00;99.90;;;;;;5003586;28;20038;-64
2024/01/19 03:42:28;;;;;;;6.03;2.80;;;-0.90;99.90;;;;;;5001516;28;20034;-64
2024/01/19 03:44:54;;;;;;;8.80;2.95;;;-0.90;99.90;;;;;;5008838;28;20042;-64
2024/01/19 03:47:19;;;;;;;6.75;2.70;;;-0.90;99.90;;;;;;5000187;28;20633;-64
2024/01/19 03:49:45;;;;;;;8.93;3.10;;;-0.90;99.90;;;;;;4998919;28;20038;-64
2024/01/19 03:52:11;;;;;;;4.85;2.67;;;-0.90;99.90;;;;;;5005228;28;20041;-64
2024/01/19 03:54:37;;;;;;;6.10;2.78;;;-0.80;99.90;;;;;;5008829;28;20782;-64
2024/01/19 03:57:06;;;;;;;5.43;2.65;;;-0.80;99.90;;;;;;5007099;28;20036;-64
2024/01/19 03:59:32;;;;;;;9.57;2.50;;;-0.80;99.90;;;;;;5002118;28;20034;-64
2024/01/19 04:01:58;;;;;;;6.50;2.75;;;-0.80;99.90;;;;;;5006635;28;20449;-64
2024/01/19 04:04:24;;;;;;;6.95;2.83;;;-0.70;99.90;;;;;;5003222;28;20037;-64
2024/01/19 04:06:52;;;;;;;8.27;2.40;;;-0.70;99.90;;;;;;5007300;28;20091;-64
2024/01/19 04:09:21;;;;;;;3.25;2.20;;;-0.70;99.90;;;;;;5002301;28;20034;-65
2024/01/19 04:11:46;;;;;;;7.32;2.10;;;-0.70;99.90;;;;;;5005741;28;20043;-64
2024/01/19 04:14:12;;;;;;;7.28;3.00;;;-0.60;99.90;;;;;;5004803;28;20026;-64
2024/01/19 04:16:39;;;;;;;4.68;2.00;;;-0.60;99.90;;;;;;5005364;28;20108;-64
2024/01/19 04:19:05;;;;;;;3.75;1.98;;;-0.60;99.90;;;;;;5007563;28;20080;-64
2024/01/19 04:21:31;;;;;;;5.97;2.55;;;-0.60;99.90;;;;;;5007276;28;20046;-64
2024/01/19 04:23:57;;;;;;;6.15;2.08;;;-0.50;99.90;;;;;;5002608;28;20034;-64
2024/01/19 04:26:23;;;;;;;2.25;1.73;;;-0.50;99.90;;;;;;5000356;28;20413;-64
2024/01/19 04:28:49;;;;;;;5.60;1.65;;;-0.40;99.90;;;;;;5007367;28;20037;-64
2024/01/19 04:31:14;;;;;;;8.25;2.22;;;-0.40;99.90;;;;;;5007035;28;20043;-64
2024/01/19 04:33:40;;;;;;;7.15;2.60;;;-0.40;99.90;;;;;;4998599;28;20066;-65
2024/01/19 04:36:06;;;;;;;3.42;2.10;;;-0.30;99.90;;;;;;5006793;28;20045;-64
2024/01/19 04:38:32;;;;;;;3.95;1.45;;;-0.40;99.90;;;;;;4996455;28;20054;-64
2024/01/19 04:40:58;;;;;;;4.18;1.52;;;-0.40;99.90;;;;;;4998157;28;20068;-64
2024/01/19 04:43:24;;;;;;;1.67;1.42;;;-0.40;99.90;;;;;;5001390;28;20433;-64
2024/01/19 04:45:49;;;;;;;4.47;2.20;;;-0.40;99.90;;;;;;5005407;28;20109;-64
2024/01/19 04:48:15;;;;;;;2.35;1.58;;;-0.40;99.90;;;;;;4996418;28;20674;-64
2024/01/19 04:50:41;;;;;;;6.13;1.60;;;-0.30;99.90;;;;;;5002513;28;20046;-64
2024/01/19 04:53:06;;;;;;;4.85;1.85;;;-0.30;99.90;;;;;;5002543;28;20058;-63
2024/01/19 04:55:32;;;;;;;3.88;1.35;;;-0.30;99.90;;;;;;5006946;28;20030;-64
2024/01/19 04:57:58;;;;;;;2.53;1.60;;;-0.30;99.90;;;;;;4994423;28;20053;-64
2024/01/19 05:00:24;;;;;;;2.30;1.25;;;-0.30;99.90;;;;;;5005593;28;20129;-64
2024/01/19 05:02:50;;;;;;;5.30;1.67;;;-0.20;99.90;;;;;;5003885;28;20033;-64
2024/01/19 05:05:16;;;;;;;2.92;1.25;;;-0.20;99.90;;;;;;5001567;28;20032;-64
2024/01/19 05:07:42;;;;;;;6.35;1.58;;;-0.20;99.90;;;;;;4998708;28;20030;-64
2024/01/19 05:10:08;;;;;;;8.20;2.10;;;-0.20;99.90;;;;;;5001622;28;20049;-64
2024/01/19 05:12:34;;;;;;;3.95;1.20;;;-0.20;99.90;;;;;;5001463;28;20806;-64
2024/01/19 05:15:00;;;;;;;4.75;1.75;;;-0.20;99.90;;;;;;5003644;28;20037;-64
2024/01/19 05:17:26;;;;;;;5.63;1.38;;;-0.20;99.90;;;;;;4996344;28;20121;-64
2024/01/19 05:19:52;;;;;;;2.53;1.20;;;-0.10;99.90;;;;;;5002956;28;20040;-64
2024/01/19 05:22:18;;;;;;;4.53;1.58;;;-0.10;99.90;;;;;;5004772;28;20082;-64
2024/01/19 05:24:44;;;;;;;3.78;1.45;;;-0.10;99.90;;;;;;4996618;28;20038;-64
2024/01/19 05:27:10;;;;;;;3.38;1.42;;;-0.10;99.90;;;;;;5006520;28;20034;-64
2024/01/19 05:29:37;;;;;;;6.15;1.80;;;-0.10;99.90;;;;;;5005426;28;20037;-61
2024/01/19 05:32:03;;;;;;;2.63;1.40;;;-0.20;99.90;;;;;;5001107;28;20041;-61
2024/01/19 05:34:29;;;;;;;6.40;1.50;;;-0.20;99.90;;;;;;5004851;28;20022;-61
2024/01/19 05:36:55;;;;;;;3.08;2.13;;;-0.20;99.90;;;;;;5006496;28;20034;-61
2024/01/19 05:39:21;;;;;;;4.35;1.77;;;-0.20;99.90;;;;;;5005946;28;20026;-61
2024/01/19 05:41:47;;;;;;;3.55;1.63;;;-0.10;99.90;;;;;;5006273;28;20034;-61
2024/01/19 05:44:13;;;;;;;4.57;1.63;;;-0.20;99.90;;;;;;5006075;28;20169;-61
2024/01/19 05:46:40;;;;;;;2.58;1.50;;;-0.30;99.90;;;;;;5003514;28;20113;-61
2024/01/19 05:49:05;;;;;;;3.20;1.70;;;-0.40;99.90;;;;;;5005877;28;20081;-61
2024/01/19 05:51:31;;;;;;;3.00;1.65;;;-0.40;99.90;;;;;;5005828;28;20532;-61
2024/01/19 05:53:58;;;;;;;5.10;1.70;;;-0.30;99.90;;;;;;5006220;28;20108;-61
2024/01/19 05:56:24;;;;;;;8.23;2.20;;;-0.30;99.90;;;;;;5002438;28;20402;-61
2024/01/19 05:58:50;;;;;;;9.30;2.30;;;-0.20;99.90;;;;;;5005666;28;20037;-61
2024/01/19 06:01:16;;;;;;;7.45;2.45;;;-0.20;99.90;;;;;;5003492;28;20481;-61
2024/01/19 06:03:42;;;;;;;5.50;1.55;;;-0.20;99.90;;;;;;5005170;28;20034;-61
2024/01/19 06:06:07;;;;;;;11.63;5.05;;;-0.10;99.90;;;;;;5003697;28;20467;-61
2024/01/19 06:08:33;;;;;;;7.63;3.45;;;0.00;99.90;;;;;;5001837;28;20038;-61
2024/01/19 06:10:59;;;;;;;15.35;3.30;;;0.00;99.90;;;;;;5004299;28;20034;-61
2024/01/19 06:13:26;;;;;;;4.47;1.90;;;0.00;99.90;;;;;;5001296;28;20022;-61
2024/01/19 06:15:51;;;;;;;3.63;1.85;;;0.00;99.90;;;;;;4998789;28;20532;-61
2024/01/19 06:18:17;;;;;;;2.17;1.40;;;0.10;99.90;;;;;;5003135;28;20457;-61
2024/01/19 06:20:43;;;;;;;5.20;1.65;;;0.10;99.90;;;;;;5005645;28;20033;-61
2024/01/19 06:23:10;;;;;;;2.45;1.63;;;0.10;99.90;;;;;;5001739;28;20060;-61
2024/01/19 06:25:36;;;;;;;6.70;2.47;;;0.20;99.90;;;;;;5002391;28;20061;-61
2024/01/19 06:28:02;;;;;;;5.85;2.10;;;0.10;99.90;;;;;;5005370;28;20505;-61
2024/01/19 06:30:29;;;;;;;1.45;1.35;;;0.10;99.90;;;;;;5005581;28;20120;-61
2024/01/19 06:32:55;;;;;;;2.67;1.55;;;0.20;99.90;;;;;;5004851;28;20864;-61
2024/01/19 06:35:21;;;;;;;7.38;2.35;;;0.20;99.90;;;;;;5005483;28;20041;-61
2024/01/19 06:37:47;;;;;;;2.63;1.55;;;0.20;99.90;;;;;;4999496;28;20037;-61
2024/01/19 06:40:14;;;;;;;4.28;1.42;;;0.20;99.90;;;;;;5003727;28;20040;-61
2024/01/19 06:42:44;;;;;;;4.45;1.63;;;0.10;99.90;;;;;;5001565;28;20041;-63
2024/01/19 06:45:10;;;;;;;6.47;1.70;;;0.10;99.90;;;;;;5003514;28;20068;-64
2024/01/19 06:47:37;;;;;;;3.90;1.98;;;0.20;99.90;;;;;;5001713;28;20065;-64
2024/01/19 06:50:03;;;;;;;3.28;1.80;;;0.20;99.90;;;;;;5002563;28;20050;-64
2024/01/19 06:52:30;;;;;;;5.68;2.47;;;0.20;99.90;;;;;;5000068;28;20034;-64
2024/01/19 06:54:55;;;;;;;5.05;3.08;;;0.10;99.90;;;;;;5002552;28;20044;-64
2024/01/19 06:57:21;;;;;;;9.40;4.07;;;0.10;99.90;;;;;;5004394;28;20120;-64
2024/01/19 06:59:47;;;;;;;11.05;3.30;;;0.00;99.90;;;;;;5005299;28;20065;-64
2024/01/19 07:02:13;;;;;;;51.95;25.40;;;0.00;99.90;;;;;;5001770;28;20038;-64
2024/01/19 07:04:39;;;;;;;28.92;16.63;;;0.10;99.90;;;;;;5002189;28;20025;-64
2024/01/19 07:07:04;;;;;;;24.65;12.75;;;0.10;99.90;;;;;;5004981;28;20034;-64
2024/01/19 07:09:30;;;;;;;30.80;16.35;;;0.10;99.90;;;;;;5002940;28;20117;-64
2024/01/19 07:11:56;;;;;;;16.23;7.50;;;0.20;99.90;;;;;;4997005;28;20039;-64
2024/01/19 07:14:22;;;;;;;7.07;4.30;;;0.10;99.90;;;;;;5004775;28;20105;-64
2024/01/19 07:16:47;;;;;;;7.43;3.85;;;0.00;99.90;;;;;;5004146;28;20045;-64
2024/01/19 07:19:13;;;;;;;12.43;6.40;;;0.00;99.90;;;;;;5001926;28;20034;-64
2024/01/19 07:21:42;;;;;;;16.88;10.98;;;0.00;99.90;;;;;;5004817;28;20036;-64
2024/01/19 07:24:10;;;;;;;70.40;36.97;;;-0.10;99.90;;;;;;5004780;28;20045;-64
2024/01/19 07:26:36;;;;;;;46.53;27.85;;;0.00;99.90;;;;;;4999148;28;20041;-64
2024/01/19 07:29:06;;;;;;;16.50;9.93;;;0.00;99.90;;;;;;5004576;28;20040;-64
2024/01/19 07:31:36;;;;;;;13.40;7.97;;;0.10;99.90;;;;;;5001551;28;20568;-64
2024/01/19 07:34:03;;;;;;;9.00;4.93;;;0.00;99.90;;;;;;5002076;28;20486;-64
2024/01/19 07:36:29;;;;;;;10.55;3.88;;;0.00;99.90;;;;;;5005046;28;20117;-64
2024/01/19 07:38:55;;;;;;;8.95;5.00;;;-0.10;99.90;;;;;;4998977;28;20592;-64
2024/01/19 07:41:21;;;;;;;6.40;3.60;;;0.00;99.90;;;;;;5003309;28;20128;-64
2024/01/19 07:43:47;;;;;;;10.15;4.32;;;0.10;99.90;;;;;;5004586;28;20041;-64
2024/01/19 07:46:14;;;;;;;13.18;5.03;;;0.20;99.90;;;;;;4994038;28;20037;-64
2024/01/19 07:48:40;;;;;;;30.42;8.63;;;0.30;99.90;;;;;;5000711;28;20172;-64
2024/01/19 07:51:06;;;;;;;19.55;7.07;;;0.10;99.90;;;;;;4998820;28;20049;-63
2024/01/19 07:53:32;;;;;;;17.85;6.97;;;0.10;99.90;;;;;;5002984;28;20022;-64
2024/01/19 07:55:58;;;;;;;14.38;4.53;;;0.20;99.90;;;;;;4994165;28;20042;-64
2024/01/19 07:58:25;;;;;;;7.70;3.45;;;0.20;99.90;;;;;;4997882;28;20104;-64
2024/01/19 08:00:50;;;;;;;9.02;3.95;;;0.30;99.90;;;;;;4989317;28;20030;-64
2024/01/19 08:03:18;;;;;;;11.30;4.97;;;0.30;99.90;;;;;;5004298;28;20482;-64
2024/01/19 08:05:44;;;;;;;7.47;3.50;;;0.40;99.90;;;;;;5007829;28;20037;-64
2024/01/19 08:08:10;;;;;;;10.75;4.55;;;0.40;99.90;;;;;;5006613;28;20033;-66
2024/01/19 08:10:36;;;;;;;10.50;5.32;;;0.30;99.90;;;;;;5005656;28;20034;-64
2024/01/19 08:13:02;;;;;;;6.72;4.10;;;0.30;99.90;;;;;;5004676;28;20752;-63
2024/01/19 08:15:28;;;;;;;9.15;5.28;;;0.30;99.90;;;;;;5007930;28;20413;-65
2024/01/19 08:17:55;;;;;;;11.05;4.82;;;0.60;99.90;;;;;;5000814;28;20037;-65
2024/01/19 08:20:21;;;;;;;9.50;4.40;;;1.50;99.90;;;;;;5006044;28;20099;-64
2024/01/19 08:22:48;;;;;;;7.65;3.70;;;2.80;99.90;;;;;;5000319;28;20026;-64
2024/01/19 08:25:14;;;;;;;6.97;4.05;;;3.90;99.90;;;;;;4996130;28;20520;-64
2024/01/19 08:27:41;;;;;;;9.93;4.68;;;4.50;99.60;;;;;;4994209;28;20026;-64
2024/01/19 08:30:07;;;;;;;9.57;4.07;;;4.40;98.70;;;;;;5003765;28;20026;-64
2024/01/19 08:32:34;;;;;;;11.13;4.38;;;3.90;99.90;;;;;;4998777;28;20035;-63
2024/01/19 08:35:08;;;;;;;7.72;4.63;;;3.60;99.90;;;;;;5005993;28;20026;-64
2024/01/19 08:37:40;;;;;;;12.73;6.38;;;3.40;99.90;;;;;;5000361;28;20048;-64
2024/01/19 08:40:07;;;;;;;9.40;5.20;;;2.80;99.90;;;;;;5007567;28;20749;-64
2024/01/19 08:42:33;;;;;;;6.75;3.70;;;2.50;99.90;;;;;;5003884;28;20509;-64
2024/01/19 08:44:59;;;;;;;5.18;3.60;;;2.40;99.90;;;;;;5001281;28;20108;-64
2024/01/19 08:47:28;;;;;;;8.30;3.88;;;2.40;99.90;;;;;;5000145;28;20034;-64
2024/01/19 08:49:54;;;;;;;10.35;4.03;;;2.40;99.90;;;;;;5006459;28;20042;-64
2024/01/19 08:52:20;;;;;;;7.75;3.55;;;2.30;99.90;;;;;;5005557;28;20029;-64
2024/01/19 08:54:46;;;;;;;8.35;3.78;;;2.20;99.90;;;;;;5002731;28;20041;-64
2024/01/19 08:57:12;;;;;;;8.02;3.42;;;2.10;99.90;;;;;;5006629;28;20048;-64
2024/01/19 08:59:38;;;;;;;7.65;3.35;;;2.10;99.90;;;;;;5000017;28;20033;-64
2024/01/19 09:02:04;;;;;;;10.20;4.13;;;2.20;99.90;;;;;;5001777;28;20035;-64
2024/01/19 09:04:29;;;;;;;10.23;4.30;;;2.30;99.90;;;;;;5003480;28;20026;-64
2024/01/19 09:06:55;;;;;;;5.95;3.05;;;2.30;99.90;;;;;;4996470;28;20784;-64
2024/01/19 09:09:21;;;;;;;12.55;4.40;;;2.30;99.90;;;;;;5002322;28;20833;-64
2024/01/19 09:11:47;;;;;;;8.75;4.40;;;2.10;99.90;;;;;;5006791;28;20140;-64
2024/01/19 09:14:13;;;;;;;6.90;3.45;;;1.90;99.90;;;;;;5004507;28;20442;-64
2024/01/19 09:16:43;;;;;;;9.75;4.05;;;1.90;99.90;;;;;;5003459;28;20033;-64
2024/01/19 09:19:10;;;;;;;7.93;3.83;;;2.00;99.90;;;;;;4997541;28;20076;-64
2024/01/19 09:21:36;;;;;;;11.70;4.30;;;2.10;99.90;;;;;;5006340;28;20033;-64
2024/01/19 09:24:01;;;;;;;10.82;5.18;;;2.30;99.90;;;;;;5000799;28;20037;-63
2024/01/19 09:26:27;;;;;;;10.43;5.45;;;2.50;99.90;;;;;;5004331;28;20030;-64
2024/01/19 09:28:54;;;;;;;19.15;11.57;;;3.00;99.90;;;;;;5005667;28;20042;-64
2024/01/19 09:31:20;;;;;;;11.60;5.72;;;3.80;99.90;;;;;;5003762;28;20091;-63
2024/01/19 09:33:46;;;;;;;10.63;6.43;;;4.80;99.90;;;;;;5005863;28;20104;-63
2024/01/19 09:36:12;;;;;;;14.70;4.55;;;5.60;97.70;;;;;;5002384;28;20827;-63
2024/01/19 09:38:38;;;;;;;9.88;4.35;;;5.60;97.40;;;;;;5004237;28;20105;-64
2024/01/19 09:41:28;;;;;;;7.25;4.97;;;6.70;95.20;;;;;;5001534;28;20038;-63
2024/01/19 09:43:57;;;;;;;6.13;3.83;;;7.50;92.40;;;;;;5003655;28;20038;-63
2024/01/19 09:46:30;;;;;;;11.07;4.32;;;8.80;89.50;;;;;;5002247;28;20493;-63
2024/01/19 09:49:04;;;;;;;9.38;5.20;;;9.70;82.20;;;;;;5005596;28;20030;-63
2024/01/19 09:51:45;;;;;;;9.88;4.90;;;9.30;81.60;;;;;;5003908;28;20036;-64
2024/01/19 09:54:16;;;;;;;12.85;4.40;;;10.20;79.00;;;;;;5005492;28;20710;-63
2024/01/19 09:56:42;;;;;;;11.57;5.75;;;11.30;73.80;;;;;;5004308;28;20030;-62
2024/01/19 09:59:08;;;;;;;14.50;5.30;;;11.80;69.40;;;;;;5004949;28;20747;-63
2024/01/19 10:01:35;;;;;;;10.77;4.05;;;12.20;67.10;;;;;;5002065;28;20037;-64
2024/01/19 10:04:06;;;;;;;8.68;4.75;;;12.60;64.50;;;;;;5005811;28;20114;-63
2024/01/19 10:06:33;;;;;;;10.18;4.65;;;12.90;63.80;;;;;;5005534;28;20044;-64
2024/01/19 10:08:59;;;;;;;7.22;3.83;;;13.50;61.20;;;;;;5002885;28;20759;-62
2024/01/19 10:11:26;;;;;;;11.25;4.40;;;13.60;59.90;;;;;;4994059;28;20026;-62
2024/01/19 10:13:52;;;;;;;8.23;4.40;;;12.60;60.40;;;;;;5004111;28;20040;-63
2024/01/19 10:16:17;;;;;;;6.55;4.47;;;12.30;63.20;;;;;;4992177;28;20042;-63
2024/01/19 10:18:44;;;;;;;10.48;4.40;;;12.20;63.20;;;;;;4999370;28;20480;-63
2024/01/19 10:21:13;;;;;;;9.95;4.60;;;12.20;63.30;;;;;;5002056;28;20044;-63
2024/01/19 10:23:41;;;;;;;8.82;5.28;;;12.50;63.30;;;;;;5005627;28;20029;-62
2024/01/19 10:26:14;;;;;;;8.68;5.00;;;12.20;62.60;;;;;;5001724;28;20561;-63
2024/01/19 10:28:40;;;;;;;9.55;5.22;;;11.40;64.20;;;;;;5001050;28;20044;-63
2024/01/19 10:31:17;;;;;;;7.28;4.60;;;11.00;66.50;;;;;;5001602;28;20038;-63
2024/01/19 10:33:54;;;;;;;10.35;5.03;;;10.20;67.60;;;;;;5002101;28;20394;-62
2024/01/19 10:36:19;;;;;;;10.73;5.80;;;10.00;68.80;;;;;;4994839;28;20029;-63
2024/01/19 10:38:45;;;;;;;15.55;5.53;;;10.00;70.40;;;;;;4999695;28;20732;-63
2024/01/19 10:41:24;;;;;;;7.78;4.45;;;10.70;68.30;;;;;;5004822;28;20509;-62
2024/01/19 10:43:50;;;;;;;8.75;4.03;;;11.80;65.30;;;;;;5004589;28;20026;-63
2024/01/19 10:46:26;;;;;;;8.48;4.38;;;12.60;62.90;;;;;;4998695;28;20292;-63
2024/01/19 10:48:52;;;;;;;;;;;12.70;61.90;;;;;;5005173;28;20992;-63
2024/01/19 10:51:19;;;;;;;6.85;4.43;;;12.20;61.90;;;;;;4997555;28;19921;-63
2024/01/19 10:53:47;;;;;;;8.88;5.63;;;11.70;63.80;;;;;;5003307;28;20034;-63
2024/01/19 10:56:21;;;;;;;7.70;3.88;;;11.40;64.70;;;;;;5001929;28;20059;-64
2024/01/19 10:58:47;;;;;;;8.63;4.93;;;11.90;63.80;;;;;;5001771;28;20856;-64
2024/01/19 11:01:14;;;;;;;11.55;4.55;;;12.60;62.50;;;;;;5003247;28;20072;-63
2024/01/19 11:03:42;;;;;;;13.45;4.63;;;13.60;60.00;;;;;;5001916;28;20144;-63
2024/01/19 11:06:09;;;;;;;9.77;4.28;;;14.00;57.90;;;;;;5003044;28;20064;-63
2024/01/19 11:08:39;;;;;;;10.07;4.03;;;14.40;57.30;;;;;;4996417;28;20108;-63
2024/01/19 11:11:06;;;;;;;7.38;3.88;;;14.30;56.70;;;;;;5000053;28;20100;-64
2024/01/19 11:13:43;;;;;;;5.97;3.30;;;14.90;56.10;;;;;;5004507;28;20121;-63
2024/01/19 11:16:17;;;;;;;12.70;4.05;;;15.50;54.10;;;;;;5001496;28;20513;-63
2024/01/19 11:18:44;;;;;;;6.10;3.33;;;15.40;54.30;;;;;;5005007;28;20478;-64
2024/01/19 11:21:10;;;;;;;5.80;3.05;;;15.40;53.80;;;;;;5004060;28;20038;-64
2024/01/19 11:23:38;;;;;;;6.80;3.05;;;15.40;54.40;;;;;;4999352;28;20048;-62
2024/01/19 11:26:26;;;;;;;7.80;3.17;;;15.80;53.50;;;;;;4996615;28;20117;-64
2024/01/19 11:28:54;;;;;;;11.45;4.25;;;14.80;54.90;;;;;;5001685;28;20104;-64
2024/01/19 11:31:27;;;;;;;7.63;3.42;;;12.80;58.50;;;;;;5003804;28;20030;-64
2024/01/19 11:33:53;;;;;;;8.40;3.63;;;10.90;63.70;;;;;;5004066;28;20030;-64
2024/01/19 11:36:41;;;;;;;8.65;3.33;;;9.40;68.50;;;;;;5003271;28;20105;-64
2024/01/19 11:39:10;;;;;;;9.88;3.88;;;8.20;73.40;;;;;;5004975;28;20033;-64
2024/01/19 11:41:36;;;;;;;5.82;3.58;;;7.30;77.00;;;;;;4996018;28;20618;-64
2024/01/19 11:44:09;;;;;;;7.22;3.55;;;6.80;80.10;;;;;;5001617;28;20122;-64
2024/01/19 11:46:46;;;;;;;5.32;3.22;;;6.50;81.60;;;;;;5008412;28;20422;-64
2024/01/19 11:49:30;;;;;;;13.00;4.10;;;6.20;84.80;;;;;;4994911;28;20046;-63
2024/01/19 11:51:57;;;;;;;9.60;3.67;;;6.10;85.80;;;;;;5003278;28;20042;-63
2024/01/19 11:54:32;;;;;;;8.20;3.75;;;6.00;86.80;;;;;;5006078;28;20045;-63
2024/01/19 11:57:20;;;;;;;12.13;3.55;;;5.70;87.70;;;;;;5002563;28;20870;-64
2024/01/19 11:59:47;;;;;;;6.45;3.47;;;5.50;90.10;;;;;;5002813;28;20042;-64
2024/01/19 12:02:33;;;;;;;6.75;3.53;;;5.40;91.10;;;;;;5002241;28;20054;-64
2024/01/19 12:05:06;;;;;;;10.43;3.53;;;5.20;92.00;;;;;;5000464;28;20096;-64
2024/01/19 12:07:31;;;;;;;7.40;3.20;;;5.00;93.20;;;;;;5006411;28;20061;-63
2024/01/19 12:10:08;;;;;;;8.68;3.45;;;4.70;94.60;;;;;;5007026;28;20398;-64
2024/01/19 12:12:35;;;;;;;8.77;3.45;;;4.80;95.40;;;;;;5003707;28;20442;-64
2024/01/19 12:15:03;;;;;;;7.18;4.75;;;4.80;95.70;;;;;;4999566;28;20038;-64
2024/01/19 12:17:29;;;;;;;13.48;8.02;;;4.80;95.90;;;;;;5004436;28;20026;-63
2024/01/19 12:19:55;;;;;;;38.00;18.00;;;4.80;96.50;;;;;;5004723;28;20589;-64
2024/01/19 12:22:21;;;;;;;47.33;22.13;;;4.70;96.40;;;;;;5005431;28;20061;-64
2024/01/19 12:24:47;;;;;;;34.67;15.88;;;4.50;97.60;;;;;;5003215;28;20104;-63
2024/01/19 12:27:23;;;;;;;25.33;9.32;;;4.50;98.40;;;;;;4989391;28;20042;-64
2024/01/19 12:29:49;;;;;;;25.42;9.55;;;4.60;98.50;;;;;;4987710;28;20145;-64
2024/01/19 12:32:18;;;;;;;9.40;5.53;;;4.60;98.90;;;;;;4999801;28;20044;-64
2024/01/19 12:34:59;;;;;;;9.95;3.78;;;4.70;99.00;;;;;;5001291;28;20121;-63
2024/01/19 12:37:25;;;;;;;7.43;4.05;;;4.70;98.80;;;;;;5003761;28;20034;-63
2024/01/19 12:39:51;;;;;;;12.75;5.57;;;4.80;99.40;;;;;;5006779;28;20034;-63
2024/01/19 12:42:17;;;;;;;18.98;7.80;;;4.90;99.00;;;;;;5005864;28;20065;-64
2024/01/19 12:44:42;;;;;;;10.32;4.20;;;4.60;99.20;;;;;;5006366;28;20803;-63
2024/01/19 12:47:08;;;;;;;16.92;6.63;;;4.50;99.90;;;;;;5005913;28;20033;-64